createdAt,value
2022-08-05T00:01:28.124Z,5.90
2022-08-05T00:06:33.357Z,5.53
2022-08-05T00:11:48.315Z,6.83
2022-08-05T00:16:53.678Z,5.70
2022-08-05T00:21:55.702Z,5.30
2022-08-05T00:26:58.593Z,5.33
2022-08-05T00:32:12.142Z,11.77
2022-08-05T00:37:15.373Z,9.70
2022-08-05T00:42:35.278Z,9.17
2022-08-05T00:47:56.601Z,8.33
2022-08-05T00:52:59.004Z,5.37
2022-08-05T00:58:01.762Z,8.73
2022-08-05T01:03:07.936Z,7.70
2022-08-05T01:08:30.789Z,7.20
2022-08-05T01:14:08.944Z,5.30
2022-08-05T01:19:36.599Z,7.53
2022-08-05T01:24:59.820Z,6.40
2022-08-05T01:30:05.301Z,4.53
2022-08-05T01:35:51.722Z,4.87
2022-08-05T01:40:53.156Z,5.87
2022-08-05T01:45:57.703Z,5.90
2022-08-05T01:51:12.185Z,5.20
2022-08-05T01:58:11.544Z,6.40
2022-08-05T02:01:40.910Z,4.97
2022-08-05T02:06:45.027Z,4.80
2022-08-05T02:12:10.023Z,3.40
2022-08-05T02:18:14.625Z,4.13
2022-08-05T02:23:03.022Z,3.30
2022-08-05T02:28:09.154Z,3.63
2022-08-05T02:33:24.164Z,3.70
2022-08-05T02:38:35.100Z,3.63
2022-08-05T02:44:06.229Z,3.07
2022-08-05T02:49:05.993Z,3.70
2022-08-05T02:54:34.801Z,3.80
2022-08-05T02:59:48.092Z,7.60
2022-08-05T03:04:57.381Z,3.60
2022-08-05T03:09:59.329Z,3.20
2022-08-05T03:15:02.323Z,4.20
2022-08-05T03:20:10.329Z,3.90
2022-08-05T03:25:33.643Z,3.30
2022-08-05T03:30:36.709Z,4.23
2022-08-05T03:35:41.121Z,3.40
2022-08-05T03:40:47.297Z,3.50
2022-08-05T03:45:57.188Z,3.33
2022-08-05T03:52:37.938Z,5.13
2022-08-05T03:56:47.631Z,3.13
2022-08-05T04:01:58.900Z,3.43
2022-08-05T04:07:03.131Z,3.67
2022-08-05T04:12:24.600Z,3.50
2022-08-05T04:17:36.524Z,3.20
2022-08-05T04:22:50.348Z,4.47
2022-08-05T04:27:58.187Z,3.80
2022-08-05T04:33:01.499Z,3.50
2022-08-05T04:38:06.596Z,3.30
2022-08-05T04:43:10.969Z,4.00
2022-08-05T04:48:27.968Z,3.40
2022-08-05T04:53:33.957Z,3.20
2022-08-05T04:58:37.497Z,3.53
2022-08-05T05:03:41.822Z,5.90
2022-08-05T05:08:44.170Z,5.00
2022-08-05T05:13:51.774Z,3.40
2022-08-05T05:19:17.695Z,6.20
2022-08-05T05:24:21.614Z,3.90
2022-08-05T05:29:23.339Z,3.60
2022-08-05T05:34:26.896Z,3.17
2022-08-05T05:39:34.523Z,3.63
2022-08-05T05:44:45.899Z,3.17
2022-08-05T05:49:47.832Z,3.50
2022-08-05T05:55:13.263Z,3.00
2022-08-05T06:00:20.356Z,3.40
2022-08-05T06:05:22.107Z,2.60
2022-08-05T06:10:24.285Z,2.77
2022-08-05T06:16:27.474Z,3.33
2022-08-05T06:20:54.192Z,2.70
2022-08-05T06:26:12.684Z,3.13
2022-08-05T06:31:21.738Z,2.77
2022-08-05T06:36:25.977Z,2.80
2022-08-05T06:41:27.896Z,3.10
2022-08-05T06:46:30.621Z,2.67
2022-08-05T06:51:32.641Z,3.53
2022-08-05T06:56:35.156Z,3.93
2022-08-05T07:01:37.134Z,4.77
2022-08-05T07:06:42.622Z,3.57
2022-08-05T07:11:49.428Z,2.97
2022-08-05T07:18:00.161Z,2.57
2022-08-05T07:22:28.559Z,2.90
2022-08-05T07:27:58.469Z,2.50
2022-08-05T07:32:54.329Z,2.60
2022-08-05T07:37:56.077Z,2.37
2022-08-05T07:42:58.013Z,2.80
2022-08-05T07:48:00.643Z,2.97
2022-08-05T07:53:03.827Z,5.57
2022-08-05T07:58:06.349Z,2.60
2022-08-05T08:03:15.998Z,5.27
2022-08-05T08:08:19.823Z,4.13
2022-08-05T08:13:29.019Z,3.63
2022-08-05T08:18:31.221Z,4.30
2022-08-05T08:24:02.013Z,2.60
2022-08-05T08:28:55.284Z,3.70
2022-08-05T08:34:01.626Z,2.70
2022-08-05T08:39:03.825Z,2.93
2022-08-05T08:45:24.310Z,2.87
2022-08-05T08:50:14.250Z,4.87
2022-08-05T08:54:58.489Z,2.67
2022-08-05T09:00:05.150Z,2.00
2022-08-05T09:05:17.362Z,4.30
2022-08-05T09:10:21.802Z,4.17
2022-08-05T09:15:30.417Z,2.63
2022-08-05T09:20:37.314Z,4.90
2022-08-05T09:26:03.325Z,2.83
2022-08-05T09:32:35.984Z,2.40
2022-08-05T09:36:55.988Z,2.20
2022-08-05T09:42:04.668Z,2.93
2022-08-05T09:47:17.352Z,2.40
2022-08-05T09:52:35.790Z,3.90
2022-08-05T09:57:47.040Z,2.50
2022-08-05T10:02:54.617Z,3.07
2022-08-05T10:08:35.538Z,2.40
2022-08-05T10:13:45.817Z,3.10
2022-08-05T10:18:51.490Z,2.70
2022-08-05T10:23:59.706Z,2.33
2022-08-05T10:29:02.723Z,2.57
2022-08-05T10:34:06.991Z,3.03
2022-08-05T10:39:58.942Z,4.33
2022-08-05T10:44:56.070Z,3.20
2022-08-05T10:50:31.722Z,3.20
2022-08-05T10:56:03.448Z,5.33
2022-08-05T11:01:02.964Z,2.77
2022-08-05T11:06:16.184Z,2.90
2022-08-05T11:11:44.246Z,3.40
2022-08-05T11:17:59.038Z,2.43
2022-08-05T11:22:54.105Z,2.80
2022-08-05T11:28:11.743Z,4.73
2022-08-05T11:33:46.119Z,1.90
2022-08-05T11:38:51.257Z,3.07
2022-08-05T11:44:40.298Z,4.83
2022-08-05T11:49:38.223Z,4.73
2022-08-05T11:54:41.226Z,3.47
2022-08-05T11:59:50.162Z,2.73
2022-08-05T12:04:59.638Z,3.20
2022-08-05T12:10:09.258Z,2.40
2022-08-05T12:15:37.864Z,2.30
2022-08-05T12:20:40.600Z,2.60
2022-08-05T12:25:52.475Z,2.80
2022-08-05T12:30:57.627Z,4.60
2022-08-05T12:36:08.196Z,2.63
2022-08-05T12:41:14.821Z,2.57
2022-08-05T12:46:31.639Z,2.00
2022-08-05T12:52:13.745Z,1.43
2022-08-05T12:57:22.722Z,1.90
2022-08-05T13:02:30.272Z,1.70
2022-08-05T13:07:57.504Z,1.70
2022-08-05T13:12:58.233Z,2.70
2022-08-05T13:18:00.341Z,1.77
2022-08-05T13:23:07.123Z,2.43
2022-08-05T13:28:10.559Z,2.53
2022-08-05T13:33:14.239Z,1.70
2022-08-05T13:38:36.270Z,2.13
2022-08-05T13:43:45.858Z,3.77
2022-08-05T13:48:58.519Z,1.63
2022-08-05T13:54:02.285Z,2.50
2022-08-05T13:59:06.209Z,1.60
2022-08-05T14:04:41.112Z,2.73
2022-08-05T14:09:46.502Z,2.90
2022-08-05T14:14:48.738Z,2.40
2022-08-05T14:20:00.842Z,3.13
2022-08-05T14:25:06.149Z,2.60
2022-08-05T14:30:21.677Z,2.87
2022-08-05T14:35:23.744Z,2.70
2022-08-05T14:40:39.343Z,2.30
2022-08-05T14:45:41.179Z,2.60
2022-08-05T14:50:43.061Z,1.90
2022-08-05T14:55:47.293Z,2.70
2022-08-05T15:00:58.187Z,2.73
2022-08-05T15:06:08.331Z,3.00
2022-08-05T15:11:17.074Z,6.20
2022-08-05T15:16:18.820Z,2.40
2022-08-05T15:21:21.298Z,3.10
2022-08-05T15:26:31.940Z,2.80
2022-08-05T15:31:34.804Z,5.60
2022-08-05T15:36:36.837Z,3.23
2022-08-05T15:41:55.712Z,3.90
2022-08-05T15:47:01.721Z,3.67
2022-08-05T15:52:14.220Z,3.03
2022-08-05T15:57:19.727Z,3.00
2022-08-05T16:02:25.178Z,3.10
2022-08-05T16:07:29.576Z,3.30
2022-08-05T16:12:31.554Z,2.30
2022-08-05T16:17:33.695Z,2.70
2022-08-05T16:22:35.703Z,2.67
2022-08-05T16:28:00.715Z,2.53
2022-08-05T16:33:02.739Z,2.53
2022-08-05T16:38:24.700Z,3.13
2022-08-05T16:43:34.553Z,3.60
2022-08-05T16:48:38.374Z,3.17
2022-08-05T16:54:05.770Z,2.97
2022-08-05T16:59:09.213Z,2.70
2022-08-05T17:04:10.965Z,5.43
2022-08-05T17:09:16.884Z,2.70
2022-08-05T17:14:22.125Z,1.50
2022-08-05T17:19:36.444Z,2.63
2022-08-05T17:24:40.946Z,1.10
2022-08-05T17:29:50.173Z,1.83
2022-08-05T17:35:02.115Z,2.47
2022-08-05T17:40:10.155Z,0.70
2022-08-05T17:45:18.198Z,0.70
2022-08-05T17:50:30.423Z,1.00
2022-08-05T17:55:37.235Z,1.30
2022-08-05T18:00:47.640Z,1.33
2022-08-05T18:05:53.408Z,0.70
2022-08-05T18:10:56.028Z,1.23
2022-08-05T18:15:59.376Z,0.77
2022-08-05T18:21:01.673Z,0.50
2022-08-05T18:26:03.516Z,2.63
2022-08-05T18:31:07.238Z,1.03
2022-08-05T18:36:15.303Z,0.90
2022-08-05T18:41:53.710Z,1.17
2022-08-05T18:46:40.997Z,2.90
2022-08-05T18:52:06.810Z,0.60
2022-08-05T18:57:15.448Z,1.07
2022-08-05T19:02:38.073Z,0.50
2022-08-05T19:07:45.084Z,0.60
2022-08-05T19:12:48.784Z,0.70
2022-08-05T19:18:08.719Z,0.80
2022-08-05T19:24:03.339Z,0.87
2022-08-05T19:28:34.612Z,0.70
2022-08-05T19:33:38.059Z,1.70
2022-08-05T19:38:43.805Z,1.20
2022-08-05T19:44:05.674Z,12.00
2022-08-05T19:49:08.555Z,0.97
2022-08-05T19:54:21.781Z,1.00
2022-08-05T19:59:55.915Z,0.90
2022-08-05T20:04:55.570Z,0.87
2022-08-05T20:10:00.960Z,1.13
2022-08-05T20:15:02.679Z,1.43
2022-08-05T20:20:10.916Z,0.80
2022-08-05T20:25:12.701Z,0.77
2022-08-05T20:30:14.559Z,1.57
2022-08-05T20:35:20.061Z,2.87
2022-08-05T20:40:21.980Z,0.83
2022-08-05T20:45:23.800Z,0.90
2022-08-05T20:50:46.933Z,0.70
2022-08-05T20:55:56.130Z,1.30
2022-08-05T21:01:10.537Z,0.83
2022-08-05T21:06:27.772Z,1.70
2022-08-05T21:12:10.654Z,0.80
2022-08-05T21:16:52.276Z,1.13
2022-08-05T21:21:54.214Z,1.47
2022-08-05T21:26:58.752Z,1.20
2022-08-05T21:32:04.549Z,0.83
2022-08-05T21:37:08.160Z,0.80
2022-08-05T21:42:19.769Z,0.93
2022-08-05T21:47:56.501Z,2.03
2022-08-05T21:52:58.864Z,1.60
2022-08-05T21:58:01.550Z,1.87
2022-08-05T22:03:05.340Z,0.90
2022-08-05T22:08:07.080Z,1.97
2022-08-05T22:14:06.091Z,1.57
2022-08-05T22:18:49.153Z,2.00
2022-08-05T22:24:13.191Z,2.13
2022-08-05T22:29:33.102Z,2.13
2022-08-05T22:34:35.145Z,1.83
2022-08-05T22:39:38.030Z,4.03
2022-08-05T22:44:42.751Z,0.90
2022-08-05T22:50:20.635Z,0.70
2022-08-05T22:55:19.366Z,1.30
2022-08-05T23:00:24.074Z,1.03
2022-08-05T23:05:28.277Z,1.47
2022-08-05T23:10:32.694Z,0.80
2022-08-05T23:15:36.344Z,1.00
2022-08-05T23:20:38.325Z,1.57
2022-08-05T23:25:52.394Z,0.90
2022-08-05T23:31:02.246Z,1.17
2022-08-05T23:36:18.510Z,0.67
2022-08-05T23:41:21.052Z,0.70
2022-08-05T23:46:23.532Z,0.63
2022-08-05T23:51:25.302Z,0.90
2022-08-05T23:56:27.937Z,1.17
